Terminal Aerodrome Forecast
Issued by NWS Cleveland, OH

Home | Current Version | Previous Version | Graphics & Text | Print | Product List | Glossary On
Versions: 1 2 3 4 5 6 7 8 9 10 11 12 13 14 15 16 17 18 19 20 21
000
FTUS41 KCLE 181100
TAFYNG
TAF
KYNG 181120Z 1812/1912 09006KT P6SM OVC100
     FM181500 06004KT P6SM BKN050
     FM182200 04006KT P6SM BKN100
     FM190000 06005KT P6SM BKN250
     FM190700 VRB03KT 4SM BR SCT250
     FM190900 00000KT 1 1/2SM BR SCT250=

USA.gov is the U.S. government's official web portal to all federal, state and local government web resources and services.